createdAt,value
2023-05-15T00:00:49.542Z,13.95
2023-05-15T00:06:07.459Z,8.57
2023-05-15T00:11:11.330Z,11.35
2023-05-15T00:16:16.738Z,12.32
2023-05-15T00:21:20.828Z,11.65
2023-05-15T00:26:25.405Z,8.82
2023-05-15T00:31:30.868Z,8.07
2023-05-15T00:36:35.707Z,7.47
2023-05-15T00:41:41.926Z,10.18
2023-05-15T00:46:47.528Z,13.63
2023-05-15T00:51:51.973Z,12.10
2023-05-15T00:56:58.217Z,10.40
2023-05-15T01:02:04.248Z,13.35
2023-05-15T01:07:08.811Z,9.98
2023-05-15T01:12:15.986Z,12.15
2023-05-15T01:17:21.459Z,11.45
2023-05-15T01:22:45.533Z,11.50
2023-05-15T01:27:55.777Z,12.10
2023-05-15T01:33:05.012Z,8.77
2023-05-15T01:38:20.435Z,11.32
2023-05-15T01:43:30.085Z,11.38
2023-05-15T01:48:36.522Z,6.90
2023-05-15T01:53:41.842Z,6.00
2023-05-15T01:58:49.475Z,11.82
2023-05-15T02:03:55.585Z,7.55
2023-05-15T02:09:00.705Z,8.57
2023-05-15T02:14:06.183Z,12.13
2023-05-15T02:19:10.282Z,8.10
2023-05-15T02:24:14.191Z,7.53
2023-05-15T02:29:24.909Z,6.82
2023-05-15T02:34:36.049Z,7.78
2023-05-15T02:39:41.610Z,8.95
2023-05-15T02:44:48.169Z,9.65
2023-05-15T02:49:52.857Z,9.02
2023-05-15T02:54:56.796Z,8.13
2023-05-15T03:00:02.466Z,8.30
2023-05-15T03:05:07.273Z,7.05
2023-05-15T03:10:11.556Z,5.38
2023-05-15T03:15:17.262Z,8.98
2023-05-15T03:20:21.253Z,11.27
2023-05-15T03:25:25.505Z,6.53
2023-05-15T03:30:30.978Z,9.68
2023-05-15T03:35:35.710Z,14.65
2023-05-15T03:40:40.001Z,8.80
2023-05-15T03:45:45.547Z,8.43
2023-05-15T03:50:49.509Z,10.65
2023-05-15T03:55:53.505Z,12.15
2023-05-15T04:00:58.836Z,12.20
2023-05-15T04:06:02.876Z,15.32
2023-05-15T04:11:07.017Z,20.40
2023-05-15T04:16:12.306Z,21.90
2023-05-15T04:21:16.264Z,15.63
2023-05-15T04:26:20.227Z,16.25
2023-05-15T04:31:25.573Z,13.10
2023-05-15T04:36:29.707Z,12.40
2023-05-15T04:41:33.771Z,18.35
2023-05-15T04:46:39.824Z,14.25
2023-05-15T04:51:44.009Z,12.30
2023-05-15T04:56:47.946Z,12.15
2023-05-15T05:01:53.270Z,15.02
2023-05-15T05:06:57.254Z,11.32
2023-05-15T05:12:01.965Z,13.00
2023-05-15T05:17:07.512Z,12.55
2023-05-15T05:22:12.440Z,12.45
2023-05-15T05:27:16.454Z,22.45
2023-05-15T05:32:22.392Z,13.38
2023-05-15T05:42:30.822Z,11.63
2023-05-15T05:47:36.148Z,14.38
2023-05-15T05:52:40.099Z,11.75
2023-05-15T05:57:44.185Z,10.57
2023-05-15T06:02:49.757Z,10.38
2023-05-15T06:07:54.015Z,10.75
2023-05-15T06:12:58.334Z,9.50
2023-05-15T06:18:03.629Z,13.07
2023-05-15T06:23:07.771Z,9.65
2023-05-15T06:28:11.682Z,10.07
2023-05-15T06:33:17.227Z,9.88
2023-05-15T06:38:21.193Z,11.98
2023-05-15T06:43:25.196Z,11.95
2023-05-15T06:48:30.451Z,10.65
2023-05-15T06:53:34.378Z,9.63
2023-05-15T06:58:38.480Z,12.10
2023-05-15T07:03:44.155Z,9.13
2023-05-15T07:13:52.590Z,11.90
2023-05-15T07:18:58.101Z,12.40
2023-05-15T07:24:02.052Z,12.77
2023-05-15T07:29:05.920Z,16.27
2023-05-15T07:34:11.253Z,12.35
2023-05-15T07:39:16.044Z,13.88
2023-05-15T07:44:19.979Z,7.25
2023-05-15T07:49:25.353Z,10.65
2023-05-15T07:54:31.729Z,8.68
2023-05-15T07:59:36.331Z,11.02
2023-05-15T08:04:41.788Z,7.30
2023-05-15T08:09:46.414Z,8.85
2023-05-15T08:14:51.195Z,7.93
2023-05-15T08:19:56.856Z,9.38
2023-05-15T08:25:01.332Z,6.95
2023-05-15T08:30:06.273Z,7.70
2023-05-15T08:35:11.887Z,8.53
2023-05-15T08:40:16.589Z,7.47
2023-05-15T08:45:20.912Z,7.10
2023-05-15T08:50:27.409Z,6.78
2023-05-15T08:55:31.351Z,9.30
2023-05-15T09:00:36.187Z,8.70
2023-05-15T09:05:41.585Z,10.40
2023-05-15T09:10:46.400Z,9.60
2023-05-15T09:15:50.792Z,8.43
2023-05-15T09:20:56.405Z,8.70
2023-05-15T09:26:00.397Z,10.50
2023-05-15T09:31:07.105Z,4.82
2023-05-15T09:36:12.431Z,8.23
2023-05-15T09:41:25.859Z,6.75
2023-05-15T09:46:30.631Z,8.73
2023-05-15T09:51:36.097Z,6.97
2023-05-15T09:56:40.393Z,6.18
2023-05-15T10:01:45.635Z,6.35
2023-05-15T10:06:52.316Z,10.27
2023-05-15T10:11:56.341Z,9.30
2023-05-15T10:17:00.331Z,7.50
2023-05-15T10:22:06.771Z,8.70
2023-05-15T10:27:12.060Z,6.78
2023-05-15T10:32:17.096Z,8.63
2023-05-15T10:37:23.262Z,9.93
2023-05-15T10:42:27.853Z,7.35
2023-05-15T10:47:33.024Z,10.80
2023-05-15T10:52:39.133Z,8.13
2023-05-15T10:57:43.363Z,8.40
2023-05-15T11:02:47.618Z,8.43
2023-05-15T11:08:22.128Z,9.93
2023-05-15T11:13:27.705Z,8.65
2023-05-15T11:18:31.693Z,7.82
2023-05-15T11:23:42.975Z,9.00
2023-05-15T11:28:48.252Z,7.50
2023-05-15T11:33:55.441Z,4.80
2023-05-15T11:39:00.595Z,6.70
2023-05-15T11:44:06.212Z,5.88
2023-05-15T11:49:11.825Z,5.38
2023-05-15T11:54:16.665Z,4.78
2023-05-15T11:59:22.630Z,7.37
2023-05-15T12:04:26.736Z,10.45
2023-05-15T12:09:30.843Z,4.85
2023-05-15T12:14:36.062Z,10.07
2023-05-15T12:19:40.779Z,7.47
2023-05-15T12:24:45.513Z,3.72
2023-05-15T12:29:51.116Z,6.97
2023-05-15T12:34:55.526Z,11.52
2023-05-15T12:40:02.638Z,9.05
2023-05-15T12:45:14.383Z,6.88
2023-05-15T12:50:20.166Z,7.50
2023-05-15T12:55:26.188Z,5.85
2023-05-15T13:00:32.436Z,9.50
2023-05-15T13:05:37.657Z,18.25
2023-05-15T13:10:41.768Z,31.52
2023-05-15T13:15:47.143Z,8.68
2023-05-15T13:20:52.728Z,8.70
2023-05-15T13:25:56.692Z,13.10
2023-05-15T13:31:04.332Z,8.55
2023-05-15T13:36:08.836Z,6.25
2023-05-15T13:41:13.039Z,8.90
2023-05-15T13:46:21.736Z,8.77
2023-05-15T13:51:25.876Z,8.63
2023-05-15T13:56:30.214Z,7.57
2023-05-15T14:01:35.514Z,9.88
2023-05-15T14:06:39.551Z,10.48
2023-05-15T14:11:43.522Z,6.07
2023-05-15T14:16:49.190Z,7.47
2023-05-15T14:26:57.106Z,6.93
2023-05-15T14:32:02.574Z,15.13
2023-05-15T14:37:07.324Z,6.50
2023-05-15T14:42:12.511Z,4.13
2023-05-15T14:47:17.856Z,6.38
2023-05-15T14:52:22.016Z,9.25
2023-05-15T14:57:26.314Z,3.85
2023-05-15T15:02:31.839Z,4.03
2023-05-15T15:13:02.123Z,5.17
2023-05-15T15:18:08.084Z,4.43
2023-05-15T15:23:12.144Z,5.15
2023-05-15T15:28:16.044Z,7.05
2023-05-15T15:33:21.425Z,4.10
2023-05-15T15:38:25.267Z,9.30
2023-05-15T15:43:29.138Z,2.70
2023-05-15T15:48:34.484Z,5.82
2023-05-15T15:53:39.332Z,6.13
2023-05-15T15:58:43.317Z,2.40
2023-05-15T16:03:48.606Z,4.85
2023-05-15T16:08:52.723Z,6.13
2023-05-15T16:13:56.917Z,6.65
2023-05-15T16:19:02.445Z,4.85
2023-05-15T16:29:11.262Z,4.95
2023-05-15T16:34:16.841Z,3.80
2023-05-15T16:39:20.821Z,4.40
2023-05-15T16:44:25.114Z,8.07
2023-05-15T16:49:33.261Z,6.05
2023-05-15T16:54:37.190Z,4.22
2023-05-15T16:59:42.746Z,3.25
2023-05-15T17:09:51.857Z,3.35
2023-05-15T17:14:56.339Z,3.90
2023-05-15T17:20:02.832Z,3.58
2023-05-15T17:25:08.381Z,4.53
2023-05-15T17:30:13.328Z,6.72
2023-05-15T17:35:19.032Z,4.43
2023-05-15T17:45:27.492Z,6.22
2023-05-15T17:50:35.008Z,5.33
2023-05-15T17:55:40.095Z,3.08
2023-05-15T18:00:44.454Z,5.70
2023-05-15T18:05:49.865Z,3.63
2023-05-15T18:10:54.222Z,4.82
2023-05-15T18:15:58.219Z,6.32
2023-05-15T18:21:03.840Z,8.68
2023-05-15T18:26:07.796Z,7.40
2023-05-15T18:31:11.783Z,6.32
2023-05-15T18:36:17.251Z,3.83
2023-05-15T18:41:21.401Z,6.72
2023-05-15T18:46:27.291Z,7.55
2023-05-15T18:51:33.368Z,5.22
2023-05-15T18:56:37.917Z,4.43
2023-05-15T19:01:42.255Z,5.50
2023-05-15T19:06:50.322Z,7.25
2023-05-15T19:11:54.351Z,5.18
2023-05-15T19:16:58.481Z,5.35
2023-05-15T19:22:04.117Z,7.88
2023-05-15T19:27:08.235Z,7.07
2023-05-15T19:32:12.375Z,6.38
2023-05-15T19:37:17.678Z,4.28
2023-05-15T19:42:21.697Z,4.75
2023-05-15T19:47:26.789Z,4.03
2023-05-15T19:52:32.309Z,5.68
2023-05-15T20:02:42.101Z,3.65
2023-05-15T20:07:47.793Z,4.18
2023-05-15T20:12:51.997Z,5.95
2023-05-15T20:17:56.268Z,6.68
2023-05-15T20:23:01.662Z,4.05
2023-05-15T20:28:05.743Z,6.40
2023-05-15T20:33:09.744Z,6.80
2023-05-15T20:38:17.537Z,4.10
2023-05-15T20:43:21.751Z,5.93
2023-05-15T20:48:25.854Z,6.82
2023-05-15T20:53:31.448Z,5.25
2023-05-15T20:58:36.063Z,4.25
2023-05-15T21:03:40.152Z,6.65
2023-05-15T21:08:45.494Z,4.93
2023-05-15T21:13:49.503Z,4.10
2023-05-15T21:18:53.469Z,8.88
2023-05-15T21:24:03.286Z,5.63
2023-05-15T21:29:07.272Z,7.45
2023-05-15T21:34:11.578Z,4.57
2023-05-15T21:39:17.063Z,5.07
2023-05-15T21:44:20.968Z,5.35
2023-05-15T21:49:24.909Z,6.72
2023-05-15T21:54:30.252Z,5.55
2023-05-15T22:04:38.347Z,5.70
2023-05-15T22:09:44.636Z,5.03
2023-05-15T22:14:58.363Z,5.28
2023-05-15T22:20:07.918Z,6.18
2023-05-15T22:25:13.998Z,5.78
2023-05-15T22:30:18.002Z,5.15
2023-05-15T22:35:22.076Z,8.65
2023-05-15T22:40:27.671Z,6.13
2023-05-15T22:50:35.596Z,6.40
2023-05-15T22:55:41.089Z,7.30
2023-05-15T23:00:45.039Z,7.05
2023-05-15T23:05:49.747Z,5.97
2023-05-15T23:10:56.208Z,6.70
2023-05-15T23:16:00.315Z,7.55
2023-05-15T23:21:04.826Z,5.20
2023-05-15T23:26:10.121Z,6.45
2023-05-15T23:31:14.539Z,5.95
2023-05-15T23:36:18.637Z,5.38
2023-05-15T23:41:23.953Z,5.50
2023-05-15T23:46:27.835Z,8.15
2023-05-15T23:51:32.427Z,5.53
2023-05-15T23:56:38.005Z,7.78
